createdAt,value
2022-10-13T00:00:31.443Z,9.25
2022-10-13T00:03:02.375Z,9.09
2022-10-13T00:05:30.242Z,9.12
2022-10-13T00:07:57.529Z,9.14
2022-10-13T00:10:25.570Z,9.12
2022-10-13T00:12:52.577Z,9.00
2022-10-13T00:15:19.921Z,8.99
2022-10-13T00:17:46.813Z,9.24
2022-10-13T00:20:13.630Z,9.50
2022-10-13T00:22:40.238Z,9.27
2022-10-13T00:25:07.375Z,9.32
2022-10-13T00:27:34.093Z,9.18
2022-10-13T00:30:00.769Z,9.16
2022-10-13T00:32:27.527Z,9.31
2022-10-13T00:34:54.219Z,9.31
2022-10-13T00:37:20.928Z,9.22
2022-10-13T00:39:47.634Z,9.24
2022-10-13T00:42:14.829Z,9.17
2022-10-13T00:45:01.596Z,9.02
2022-10-13T00:47:37.009Z,8.94
2022-10-13T00:50:05.058Z,8.84
2022-10-13T00:52:33.600Z,8.66
2022-10-13T00:55:03.177Z,8.64
2022-10-13T00:57:30.239Z,8.56
2022-10-13T00:59:57.674Z,8.46
2022-10-13T01:02:31.778Z,8.44
2022-10-13T01:04:59.232Z,8.44
2022-10-13T01:07:26.143Z,8.45
2022-10-13T01:09:53.063Z,8.51
2022-10-13T01:12:43.557Z,8.77
2022-10-13T01:15:34.181Z,8.91
2022-10-13T01:18:27.034Z,8.84
2022-10-13T01:21:10.095Z,9.09
2022-10-13T01:24:03.867Z,9.03
2022-10-13T01:26:59.570Z,9.23
2022-10-13T01:29:51.198Z,9.19
2022-10-13T01:32:37.793Z,9.27
2022-10-13T01:35:14.253Z,9.23
2022-10-13T01:37:53.018Z,9.33
2022-10-13T01:40:29.062Z,9.23
2022-10-13T01:43:10.651Z,9.17
2022-10-13T01:45:42.587Z,9.12
2022-10-13T01:48:10.674Z,9.03
2022-10-13T01:50:39.305Z,8.94
2022-10-13T01:53:07.333Z,8.98
2022-10-13T01:55:34.234Z,8.92
2022-10-13T01:58:00.972Z,8.80
2022-10-13T02:00:34.387Z,8.99
2022-10-13T02:03:09.617Z,8.82
2022-10-13T02:05:51.277Z,8.71
2022-10-13T02:08:37.548Z,8.75
2022-10-13T02:11:07.011Z,8.62
2022-10-13T02:13:36.808Z,8.59
2022-10-13T02:16:03.605Z,8.51
2022-10-13T02:18:35.925Z,8.50
2022-10-13T02:21:04.063Z,8.45
2022-10-13T02:23:31.617Z,8.38
2022-10-13T02:26:00.256Z,8.32
2022-10-13T02:28:27.735Z,8.33
2022-10-13T02:30:54.471Z,8.27
2022-10-13T02:33:21.078Z,8.23
2022-10-13T02:35:47.886Z,8.21
2022-10-13T02:38:14.653Z,8.13
2022-10-13T02:40:41.401Z,8.11
2022-10-13T02:43:08.008Z,8.03
2022-10-13T02:45:34.702Z,8.22
2022-10-13T02:48:01.525Z,8.27
2022-10-13T02:50:31.990Z,8.17
2022-10-13T02:52:58.928Z,8.22
2022-10-13T02:55:25.636Z,8.31
2022-10-13T02:57:52.327Z,8.17
2022-10-13T03:00:19.931Z,8.23
2022-10-13T03:02:46.608Z,8.26
2022-10-13T03:05:13.590Z,8.11
2022-10-13T03:07:41.821Z,8.19
2022-10-13T03:10:08.766Z,8.09
2022-10-13T03:12:35.483Z,8.16
2022-10-13T03:15:02.103Z,8.10
2022-10-13T03:17:29.219Z,8.11
2022-10-13T03:19:55.923Z,8.26
2022-10-13T03:22:23.056Z,8.24
2022-10-13T03:24:49.959Z,8.25
2022-10-13T03:27:16.672Z,8.53
2022-10-13T03:29:43.284Z,8.55
2022-10-13T03:32:10.127Z,8.54
2022-10-13T03:34:36.777Z,8.59
2022-10-13T03:37:04.294Z,8.63
2022-10-13T03:39:30.976Z,8.69
2022-10-13T03:41:57.655Z,8.61
2022-10-13T03:44:24.453Z,8.67
2022-10-13T03:46:51.846Z,8.83
2022-10-13T03:49:19.490Z,8.88
2022-10-13T03:51:46.579Z,8.86
2022-10-13T03:54:14.585Z,8.82
2022-10-13T03:56:42.339Z,8.68
2022-10-13T03:59:12.615Z,8.70
2022-10-13T04:01:39.858Z,8.71
2022-10-13T04:04:07.904Z,8.84
2022-10-13T04:06:34.656Z,8.73
2022-10-13T04:09:01.316Z,8.67
2022-10-13T04:11:28.249Z,8.84
2022-10-13T04:13:56.894Z,8.91
2022-10-13T04:16:27.125Z,8.77
2022-10-13T04:18:57.466Z,8.71
2022-10-13T04:21:24.873Z,8.77
2022-10-13T04:23:51.604Z,8.81
2022-10-13T04:26:21.944Z,8.82
2022-10-13T04:28:50.112Z,8.79
2022-10-13T04:31:17.017Z,8.77
2022-10-13T04:33:44.520Z,8.94
2022-10-13T04:36:13.232Z,8.78
2022-10-13T04:38:40.329Z,8.81
2022-10-13T04:41:07.933Z,8.75
2022-10-13T04:43:35.403Z,8.81
2022-10-13T04:46:13.872Z,8.85
2022-10-13T04:48:40.757Z,8.76
2022-10-13T04:51:10.766Z,8.84
2022-10-13T04:53:37.979Z,8.88
2022-10-13T04:56:08.473Z,8.95
2022-10-13T04:58:36.610Z,8.87
2022-10-13T05:01:05.735Z,8.88
2022-10-13T05:03:33.337Z,8.86
2022-10-13T05:06:00.145Z,8.89
2022-10-13T05:08:26.834Z,8.98
2022-10-13T05:10:58.030Z,8.85
2022-10-13T05:13:26.075Z,8.81
2022-10-13T05:15:52.790Z,8.87
2022-10-13T05:18:20.162Z,8.83
2022-10-13T05:20:47.254Z,8.61
2022-10-13T05:23:14.891Z,8.66
2022-10-13T05:25:41.843Z,8.84
2022-10-13T05:28:09.695Z,8.82
2022-10-13T05:30:36.359Z,8.77
2022-10-13T05:33:03.409Z,8.82
2022-10-13T05:35:30.164Z,8.94
2022-10-13T05:37:56.816Z,8.87
2022-10-13T05:40:23.541Z,8.86
2022-10-13T05:42:51.426Z,8.88
2022-10-13T05:45:19.647Z,8.94
2022-10-13T05:47:46.315Z,8.90
2022-10-13T05:50:13.212Z,9.00
2022-10-13T05:52:41.824Z,8.85
2022-10-13T05:55:11.298Z,8.80
2022-10-13T05:57:42.063Z,9.00
2022-10-13T06:00:12.822Z,8.88
2022-10-13T06:02:47.268Z,9.00
2022-10-13T06:05:18.285Z,9.05
2022-10-13T06:07:46.264Z,8.91
2022-10-13T06:10:13.312Z,8.99
2022-10-13T06:12:39.970Z,8.98
2022-10-13T06:15:07.359Z,9.07
2022-10-13T06:17:38.139Z,9.21
2022-10-13T06:20:06.733Z,9.06
2022-10-13T06:22:34.703Z,9.12
2022-10-13T06:25:02.060Z,9.06
2022-10-13T06:27:28.945Z,9.13
2022-10-13T06:29:55.893Z,9.30
2022-10-13T06:32:24.865Z,9.39
2022-10-13T06:34:51.640Z,9.31
2022-10-13T06:37:19.637Z,9.26
2022-10-13T06:39:48.873Z,9.32
2022-10-13T06:42:16.360Z,9.35
2022-10-13T06:44:43.088Z,9.35
2022-10-13T06:47:09.788Z,9.47
2022-10-13T06:49:40.213Z,9.41
2022-10-13T06:52:06.930Z,9.46
2022-10-13T06:54:33.674Z,9.62
2022-10-13T06:57:00.531Z,9.58
2022-10-13T06:59:27.873Z,9.51
2022-10-13T07:01:54.630Z,9.53
2022-10-13T07:04:21.395Z,9.55
2022-10-13T07:06:51.669Z,9.57
2022-10-13T07:09:20.061Z,9.69
2022-10-13T07:11:47.747Z,9.62
2022-10-13T07:14:14.436Z,9.85
2022-10-13T07:16:41.634Z,9.89
2022-10-13T07:19:08.285Z,9.86
2022-10-13T07:21:34.996Z,9.96
2022-10-13T07:24:02.788Z,10.18
2022-10-13T07:26:29.712Z,10.12
2022-10-13T07:28:56.445Z,10.30
2022-10-13T07:31:23.190Z,10.42
2022-10-13T07:33:51.417Z,10.73
2022-10-13T07:36:19.124Z,10.83
2022-10-13T07:38:46.749Z,11.07
2022-10-13T07:41:14.400Z,11.02
2022-10-13T07:43:41.500Z,11.11
2022-10-13T07:46:10.209Z,11.09
2022-10-13T07:48:37.001Z,11.19
2022-10-13T07:51:09.128Z,11.08
2022-10-13T07:53:36.076Z,11.20
2022-10-13T07:56:05.023Z,11.26
2022-10-13T07:58:31.936Z,11.37
2022-10-13T08:01:00.514Z,11.37
2022-10-13T08:03:27.999Z,11.45
2022-10-13T08:05:55.644Z,11.49
2022-10-13T08:08:22.519Z,11.56
2022-10-13T08:10:49.236Z,11.61
2022-10-13T08:13:15.996Z,11.67
2022-10-13T08:15:44.231Z,11.94
2022-10-13T08:18:13.059Z,11.94
2022-10-13T08:20:43.817Z,11.98
2022-10-13T08:23:11.957Z,11.83
2022-10-13T08:25:40.515Z,11.92
2022-10-13T08:28:15.743Z,12.05
2022-10-13T08:30:42.482Z,11.89
2022-10-13T08:33:09.262Z,11.80
2022-10-13T08:35:35.888Z,12.06
2022-10-13T08:38:02.518Z,12.04
2022-10-13T08:40:29.217Z,11.94
2022-10-13T08:43:00.213Z,12.03
2022-10-13T08:45:45.929Z,11.99
2022-10-13T08:48:15.892Z,12.14
2022-10-13T08:50:46.587Z,12.02
2022-10-13T08:53:33.279Z,12.21
2022-10-13T08:56:15.181Z,12.39
2022-10-13T08:58:43.177Z,12.37
2022-10-13T09:01:25.113Z,12.23
2022-10-13T09:04:13.863Z,12.11
2022-10-13T09:06:58.780Z,12.26
2022-10-13T09:09:25.438Z,12.23
2022-10-13T09:11:52.266Z,12.24
2022-10-13T09:14:27.389Z,12.07
2022-10-13T09:16:57.180Z,12.29
2022-10-13T09:19:25.659Z,12.29
2022-10-13T09:21:55.887Z,12.37
2022-10-13T09:24:25.476Z,12.42
2022-10-13T09:27:11.473Z,12.52
2022-10-13T09:29:38.413Z,12.59
2022-10-13T09:32:19.711Z,12.61
2022-10-13T09:34:47.013Z,12.78
2022-10-13T09:37:31.913Z,12.75
2022-10-13T09:40:11.894Z,12.53
2022-10-13T09:42:38.775Z,12.54
2022-10-13T09:45:15.366Z,12.62
2022-10-13T09:47:52.085Z,12.67
2022-10-13T09:50:23.272Z,12.73
2022-10-13T09:52:50.656Z,12.73
2022-10-13T09:55:32.220Z,12.75
2022-10-13T09:58:21.916Z,12.90
2022-10-13T10:00:51.284Z,12.92
2022-10-13T10:03:23.794Z,12.61
2022-10-13T10:05:56.434Z,12.90
2022-10-13T10:09:01.406Z,12.89
2022-10-13T10:11:39.708Z,13.05
2022-10-13T10:14:27.112Z,13.08
2022-10-13T10:17:23.623Z,13.03
2022-10-13T10:20:11.921Z,13.04
2022-10-13T10:22:47.611Z,13.00
2022-10-13T10:25:29.972Z,12.96
2022-10-13T10:28:14.893Z,13.02
2022-10-13T10:30:54.035Z,13.00
2022-10-13T10:33:30.358Z,13.03
2022-10-13T10:36:16.830Z,13.08
2022-10-13T10:38:50.824Z,13.29
2022-10-13T10:41:47.557Z,13.22
2022-10-13T10:44:23.764Z,13.27
2022-10-13T10:46:51.707Z,13.28
2022-10-13T10:49:46.054Z,13.19
2022-10-13T10:52:23.464Z,13.23
2022-10-13T10:54:56.933Z,13.37
2022-10-13T10:57:35.567Z,13.49
2022-10-13T11:00:07.131Z,13.43
2022-10-13T11:03:00.680Z,13.70
2022-10-13T11:06:04.811Z,13.72
2022-10-13T11:08:48.759Z,13.74
2022-10-13T11:11:33.411Z,13.31
2022-10-13T11:14:06.215Z,13.57
2022-10-13T11:16:40.820Z,13.41
2022-10-13T11:19:30.733Z,13.24
2022-10-13T11:21:57.759Z,13.36
2022-10-13T11:24:33.567Z,13.56
2022-10-13T11:27:09.425Z,13.53
2022-10-13T11:29:54.909Z,13.55
2022-10-13T11:32:27.792Z,13.52
2022-10-13T11:35:04.678Z,13.71
2022-10-13T11:38:13.917Z,13.86
2022-10-13T11:41:05.306Z,13.69
2022-10-13T11:43:48.825Z,13.77
2022-10-13T11:46:31.357Z,13.84
2022-10-13T11:49:33.387Z,13.93
2022-10-13T11:52:27.310Z,14.03
2022-10-13T11:55:01.591Z,13.95
2022-10-13T11:57:29.300Z,14.06
2022-10-13T11:59:56.948Z,14.08
2022-10-13T12:02:26.586Z,14.28
2022-10-13T12:05:02.152Z,14.29
2022-10-13T12:07:34.847Z,14.35
2022-10-13T12:10:05.820Z,14.59
2022-10-13T12:12:32.835Z,14.44
2022-10-13T12:15:02.642Z,14.38
2022-10-13T12:17:38.891Z,14.13
2022-10-13T12:20:23.551Z,14.22
2022-10-13T12:22:51.770Z,14.08
2022-10-13T12:25:21.322Z,14.39
2022-10-13T12:27:50.936Z,14.47
2022-10-13T12:30:32.076Z,14.43
2022-10-13T12:33:00.874Z,14.48
2022-10-13T12:35:33.120Z,14.55
2022-10-13T12:38:07.838Z,14.51
2022-10-13T12:40:35.131Z,14.42
2022-10-13T12:43:04.480Z,14.32
2022-10-13T12:45:33.650Z,14.44
2022-10-13T12:48:00.529Z,14.53
2022-10-13T12:50:30.200Z,14.43
2022-10-13T12:53:04.605Z,14.17
2022-10-13T12:55:32.874Z,14.35
2022-10-13T12:57:59.773Z,14.47
2022-10-13T13:00:29.348Z,14.56
2022-10-13T13:02:58.767Z,14.53
2022-10-13T13:05:36.162Z,14.20
2022-10-13T13:08:05.617Z,13.95
2022-10-13T13:10:32.341Z,14.05
2022-10-13T13:13:14.325Z,14.34
2022-10-13T13:15:41.578Z,14.39
2022-10-13T13:18:26.537Z,14.42
2022-10-13T13:20:54.568Z,14.39
2022-10-13T13:23:22.239Z,14.37
2022-10-13T13:26:20.058Z,14.40
2022-10-13T13:28:48.975Z,14.52
2022-10-13T13:31:17.860Z,14.47
2022-10-13T13:33:44.549Z,14.34
2022-10-13T13:36:20.821Z,14.11
2022-10-13T13:38:48.670Z,14.25
2022-10-13T13:41:16.080Z,14.27
2022-10-13T13:43:43.423Z,14.11
2022-10-13T13:46:17.492Z,14.23
2022-10-13T13:48:44.208Z,13.98
2022-10-13T13:51:10.947Z,14.06
2022-10-13T13:53:37.805Z,14.20
2022-10-13T13:56:05.098Z,14.06
2022-10-13T13:58:31.832Z,14.07
2022-10-13T14:01:01.605Z,14.09
2022-10-13T14:03:28.226Z,14.14
2022-10-13T14:05:54.869Z,14.07
2022-10-13T14:08:21.530Z,14.22
2022-10-13T14:10:48.501Z,14.20
2022-10-13T14:13:15.182Z,14.07
2022-10-13T14:15:41.913Z,14.17
2022-10-13T14:18:08.746Z,14.09
2022-10-13T14:20:35.501Z,13.91
2022-10-13T14:23:02.181Z,14.01
2022-10-13T14:25:28.861Z,13.98
2022-10-13T14:27:55.537Z,13.97
2022-10-13T14:30:22.179Z,14.10
2022-10-13T14:32:48.823Z,14.17
2022-10-13T14:35:15.576Z,13.95
2022-10-13T14:37:42.208Z,13.91
2022-10-13T14:40:09.493Z,13.82
2022-10-13T14:42:36.204Z,13.86
2022-10-13T14:45:02.987Z,13.74
2022-10-13T14:47:29.908Z,13.64
2022-10-13T14:49:56.630Z,13.73
2022-10-13T14:52:23.395Z,13.76
2022-10-13T14:54:50.012Z,13.93
2022-10-13T14:57:16.695Z,13.86
2022-10-13T14:59:43.516Z,13.77
2022-10-13T15:02:14.014Z,13.68
2022-10-13T15:04:40.802Z,13.68
2022-10-13T15:07:07.705Z,13.78
2022-10-13T15:09:45.504Z,13.61
2022-10-13T15:12:19.424Z,13.58
2022-10-13T15:14:46.242Z,13.65
2022-10-13T15:17:12.922Z,13.68
2022-10-13T15:19:39.524Z,13.61
2022-10-13T15:22:06.138Z,13.71
2022-10-13T15:24:32.738Z,13.54
2022-10-13T15:26:59.388Z,13.57
2022-10-13T15:29:26.001Z,13.66
2022-10-13T15:31:52.614Z,13.36
2022-10-13T15:34:19.252Z,13.34
2022-10-13T15:36:45.936Z,13.18
2022-10-13T15:39:12.756Z,13.39
2022-10-13T15:41:39.401Z,13.41
2022-10-13T15:44:06.016Z,13.32
2022-10-13T15:46:32.682Z,13.28
2022-10-13T15:49:00.040Z,13.45
2022-10-13T15:51:27.113Z,13.35
2022-10-13T15:53:55.310Z,13.40
2022-10-13T15:56:22.238Z,13.35
2022-10-13T15:58:48.933Z,13.41
2022-10-13T16:01:15.655Z,13.32
2022-10-13T16:03:42.590Z,13.48
2022-10-13T16:06:12.334Z,13.43
2022-10-13T16:08:40.685Z,13.46
2022-10-13T16:11:12.290Z,13.40
2022-10-13T16:13:39.699Z,13.31
2022-10-13T16:16:07.522Z,13.28
2022-10-13T16:18:36.403Z,13.25
2022-10-13T16:21:17.289Z,13.29
2022-10-13T16:23:45.795Z,13.17
2022-10-13T16:26:12.427Z,13.27
2022-10-13T16:28:39.194Z,13.21
2022-10-13T16:31:08.212Z,13.24
2022-10-13T16:33:35.867Z,13.18
2022-10-13T16:36:08.442Z,13.13
2022-10-13T16:38:35.301Z,13.09
2022-10-13T16:41:06.767Z,13.21
2022-10-13T16:43:33.995Z,13.29
2022-10-13T16:46:04.105Z,13.23
2022-10-13T16:48:32.472Z,13.12
2022-10-13T16:51:03.959Z,13.19
2022-10-13T16:53:30.587Z,13.30
2022-10-13T16:55:57.284Z,13.12
2022-10-13T16:58:23.929Z,13.18
2022-10-13T17:00:50.833Z,13.16
2022-10-13T17:03:17.913Z,13.13
2022-10-13T17:05:44.550Z,13.06
2022-10-13T17:08:11.175Z,13.03
2022-10-13T17:10:38.005Z,13.10
2022-10-13T17:13:04.746Z,13.04
2022-10-13T17:15:31.332Z,13.25
2022-10-13T17:17:57.994Z,13.17
2022-10-13T17:20:24.667Z,13.22
2022-10-13T17:22:51.304Z,13.13
2022-10-13T17:25:17.947Z,13.14
2022-10-13T17:27:44.599Z,13.04
2022-10-13T17:30:11.704Z,13.07
2022-10-13T17:32:39.276Z,13.12
2022-10-13T17:35:06.721Z,13.29
2022-10-13T17:37:33.438Z,13.34
2022-10-13T17:40:00.065Z,13.22
2022-10-13T17:42:28.868Z,13.04
2022-10-13T17:44:55.477Z,13.02
2022-10-13T17:47:25.502Z,13.06
2022-10-13T17:49:52.136Z,13.21
2022-10-13T17:52:18.820Z,13.20
2022-10-13T17:54:45.461Z,13.25
2022-10-13T17:57:12.109Z,13.17
2022-10-13T17:59:38.823Z,13.17
2022-10-13T18:02:05.595Z,13.19
2022-10-13T18:04:32.270Z,13.27
2022-10-13T18:06:58.978Z,13.20
2022-10-13T18:09:27.038Z,13.03
2022-10-13T18:11:54.894Z,13.21
2022-10-13T18:14:24.179Z,13.14
2022-10-13T18:16:52.328Z,13.10
2022-10-13T18:19:19.913Z,13.26
2022-10-13T18:21:46.593Z,13.15
2022-10-13T18:24:13.317Z,13.15
2022-10-13T18:26:40.957Z,13.23
2022-10-13T18:29:10.202Z,13.13
2022-10-13T18:31:38.229Z,13.17
2022-10-13T18:34:07.841Z,13.29
2022-10-13T18:36:40.966Z,13.17
2022-10-13T18:39:13.681Z,13.28
2022-10-13T18:41:40.898Z,13.13
2022-10-13T18:44:08.259Z,13.27
2022-10-13T18:46:36.701Z,13.16
2022-10-13T18:49:04.590Z,13.26
2022-10-13T18:51:36.361Z,13.33
2022-10-13T18:54:04.380Z,13.21
2022-10-13T18:56:31.719Z,13.23
2022-10-13T18:59:01.132Z,13.32
2022-10-13T19:01:30.383Z,13.09
2022-10-13T19:03:57.853Z,13.07
2022-10-13T19:06:27.060Z,13.24
2022-10-13T19:09:05.866Z,13.23
2022-10-13T19:11:33.179Z,13.13
2022-10-13T19:14:01.068Z,13.08
2022-10-13T19:16:30.581Z,13.16
2022-10-13T19:18:57.736Z,13.10
2022-10-13T19:21:24.805Z,13.10
2022-10-13T19:23:51.787Z,13.18
2022-10-13T19:26:23.714Z,13.16
2022-10-13T19:28:55.035Z,13.11
2022-10-13T19:31:23.589Z,13.36
2022-10-13T19:33:52.475Z,13.40
2022-10-13T19:36:25.082Z,13.33
2022-10-13T19:38:52.609Z,13.21
2022-10-13T19:41:22.043Z,13.15
2022-10-13T19:43:49.444Z,13.05
2022-10-13T19:46:17.026Z,13.09
2022-10-13T19:48:44.776Z,13.31
2022-10-13T19:51:11.806Z,13.27
2022-10-13T19:53:39.549Z,13.37
2022-10-13T19:56:07.400Z,13.25
2022-10-13T19:58:34.812Z,13.10
2022-10-13T20:01:06.722Z,13.06
2022-10-13T20:03:33.612Z,13.11
2022-10-13T20:06:04.354Z,13.07
2022-10-13T20:08:31.038Z,13.18
2022-10-13T20:10:57.788Z,13.12
2022-10-13T20:13:24.588Z,13.24
2022-10-13T20:15:51.322Z,13.27
2022-10-13T20:18:18.059Z,13.20
2022-10-13T20:20:44.787Z,13.16
2022-10-13T20:23:12.066Z,13.08
2022-10-13T20:25:38.838Z,13.07
2022-10-13T20:28:06.324Z,13.05
2022-10-13T20:30:33.450Z,13.02
2022-10-13T20:33:00.300Z,12.98
2022-10-13T20:35:27.446Z,12.90
2022-10-13T20:37:54.164Z,12.75
2022-10-13T20:40:20.885Z,12.70
2022-10-13T20:42:52.363Z,12.56
2022-10-13T20:45:19.547Z,12.64
2022-10-13T20:47:46.965Z,12.54
2022-10-13T20:50:13.943Z,12.46
2022-10-13T20:52:40.749Z,12.57
2022-10-13T20:55:07.773Z,12.62
2022-10-13T20:57:34.875Z,12.56
2022-10-13T21:00:01.631Z,12.57
2022-10-13T21:02:28.244Z,12.62
2022-10-13T21:04:54.921Z,12.78
2022-10-13T21:07:21.880Z,12.72
2022-10-13T21:09:53.667Z,12.73
2022-10-13T21:12:21.456Z,12.82
2022-10-13T21:14:48.155Z,12.70
2022-10-13T21:17:14.771Z,12.77
2022-10-13T21:19:41.555Z,12.80
2022-10-13T21:22:08.157Z,12.75
2022-10-13T21:24:35.111Z,12.84
2022-10-13T21:27:01.817Z,12.96
2022-10-13T21:29:28.605Z,12.89
2022-10-13T21:31:55.296Z,12.97
2022-10-13T21:34:22.003Z,13.03
2022-10-13T21:36:48.752Z,13.05
2022-10-13T21:39:15.958Z,13.08
2022-10-13T21:41:42.753Z,12.99
2022-10-13T21:44:13.200Z,12.90
2022-10-13T21:46:40.392Z,12.93
2022-10-13T21:49:07.149Z,13.04
2022-10-13T21:51:38.839Z,12.98
2022-10-13T21:54:11.906Z,13.03
2022-10-13T21:56:39.976Z,13.03
2022-10-13T21:59:07.676Z,12.95
2022-10-13T22:01:35.120Z,13.05
2022-10-13T22:04:02.649Z,12.94
2022-10-13T22:06:32.143Z,13.05
2022-10-13T22:09:00.633Z,12.98
2022-10-13T22:11:30.613Z,12.98
2022-10-13T22:13:58.447Z,12.95
2022-10-13T22:16:33.848Z,13.05
2022-10-13T22:19:00.938Z,13.01
2022-10-13T22:21:30.387Z,13.01
2022-10-13T22:23:59.844Z,13.07
2022-10-13T22:26:29.015Z,13.06
2022-10-13T22:28:58.014Z,12.94
2022-10-13T22:31:25.179Z,12.89
2022-10-13T22:33:53.706Z,12.99
2022-10-13T22:36:24.929Z,12.85
2022-10-13T22:38:53.586Z,12.83
2022-10-13T22:41:20.804Z,12.82
2022-10-13T22:43:55.796Z,12.86
2022-10-13T22:46:25.274Z,12.94
2022-10-13T22:48:52.095Z,12.86
2022-10-13T22:51:21.296Z,13.02
2022-10-13T22:53:48.865Z,12.85
2022-10-13T22:56:22.726Z,12.94
2022-10-13T22:58:51.202Z,12.81
2022-10-13T23:01:18.974Z,12.81
2022-10-13T23:03:50.732Z,12.84
2022-10-13T23:06:20.988Z,12.79
2022-10-13T23:08:47.974Z,12.79
2022-10-13T23:11:15.142Z,12.80
2022-10-13T23:13:41.831Z,12.78
2022-10-13T23:16:16.564Z,12.78
2022-10-13T23:18:43.618Z,12.76
2022-10-13T23:21:17.289Z,12.67
2022-10-13T23:23:44.624Z,12.81
2022-10-13T23:26:13.953Z,12.74
2022-10-13T23:28:41.227Z,12.62
2022-10-13T23:31:12.129Z,12.63
2022-10-13T23:33:39.092Z,12.60
2022-10-13T23:36:06.452Z,12.55
2022-10-13T23:38:33.932Z,12.57
2022-10-13T23:41:07.055Z,12.60
2022-10-13T23:43:33.748Z,12.71
2022-10-13T23:46:00.951Z,12.62
2022-10-13T23:48:28.526Z,12.56
2022-10-13T23:50:55.857Z,12.57
2022-10-13T23:53:22.765Z,12.54
2022-10-13T23:55:49.506Z,12.57
2022-10-13T23:58:16.236Z,12.49
